createdAt,value
2022-09-28T00:01:32.483Z,45.21
2022-09-28T00:04:01.698Z,45.15
2022-09-28T00:06:30.924Z,45.47
2022-09-28T00:09:00.679Z,45.26
2022-09-28T00:11:28.759Z,45.23
2022-09-28T00:14:01.776Z,45.42
2022-09-28T00:16:33.159Z,45.40
2022-09-28T00:19:02.282Z,45.36
2022-09-28T00:21:36.812Z,45.46
2022-09-28T00:24:35.825Z,45.29
2022-09-28T00:27:07.953Z,45.20
2022-09-28T00:29:41.324Z,45.14
2022-09-28T00:32:17.068Z,45.51
2022-09-28T00:34:49.593Z,45.41
2022-09-28T00:37:22.736Z,45.37
2022-09-28T00:39:50.616Z,45.40
2022-09-28T00:42:20.650Z,45.20
2022-09-28T00:44:50.371Z,45.24
2022-09-28T00:47:31.997Z,45.34
2022-09-28T00:50:09.628Z,45.40
2022-09-28T00:53:00.972Z,45.38
2022-09-28T00:55:38.282Z,45.38
2022-09-28T00:58:10.992Z,45.51
2022-09-28T01:00:40.392Z,45.52
2022-09-28T01:03:09.064Z,45.35
2022-09-28T01:05:39.320Z,45.42
2022-09-28T01:08:09.734Z,45.51
2022-09-28T01:10:39.253Z,45.66
2022-09-28T01:13:07.441Z,45.48
2022-09-28T01:15:46.892Z,45.51
2022-09-28T01:18:22.342Z,45.53
2022-09-28T01:21:01.020Z,45.48
2022-09-28T01:23:48.629Z,45.36
2022-09-28T01:26:45.268Z,45.71
2022-09-28T01:29:20.114Z,45.75
2022-09-28T01:31:54.943Z,45.80
2022-09-28T01:34:30.490Z,45.60
2022-09-28T01:37:04.422Z,45.61
2022-09-28T01:39:37.242Z,45.41
2022-09-28T01:42:10.458Z,45.47
2022-09-28T01:44:41.928Z,45.72
2022-09-28T01:47:11.715Z,45.76
2022-09-28T01:49:45.728Z,45.72
2022-09-28T01:52:19.689Z,45.70
2022-09-28T01:54:52.568Z,45.65
2022-09-28T01:57:26.769Z,45.73
2022-09-28T01:59:59.813Z,45.84
2022-09-28T02:02:33.143Z,45.81
2022-09-28T02:05:07.758Z,45.82
2022-09-28T02:07:41.867Z,45.66
2022-09-28T02:10:15.333Z,45.76
2022-09-28T02:12:46.290Z,45.63
2022-09-28T02:15:19.941Z,45.62
2022-09-28T02:17:47.557Z,45.75
2022-09-28T02:20:16.289Z,45.73
2022-09-28T02:22:49.317Z,45.63
2022-09-28T02:25:28.213Z,45.78
2022-09-28T02:28:01.114Z,45.87
2022-09-28T02:30:33.398Z,46.03
2022-09-28T02:33:05.941Z,45.94
2022-09-28T02:35:34.995Z,46.03
2022-09-28T02:38:03.318Z,45.92
2022-09-28T02:40:33.892Z,45.92
2022-09-28T02:43:12.836Z,45.83
2022-09-28T02:45:50.122Z,45.69
2022-09-28T02:48:43.102Z,45.71
2022-09-28T02:51:26.104Z,45.99
2022-09-28T02:54:16.633Z,45.67
2022-09-28T02:56:59.438Z,46.04
2022-09-28T02:59:44.338Z,45.88
2022-09-28T03:02:24.615Z,45.93
2022-09-28T03:05:03.847Z,45.81
2022-09-28T03:07:37.014Z,46.05
2022-09-28T03:10:13.642Z,45.68
2022-09-28T03:12:43.630Z,45.85
2022-09-28T03:15:19.514Z,45.75
2022-09-28T03:17:47.797Z,46.00
2022-09-28T03:20:16.563Z,45.88
2022-09-28T03:23:00.298Z,45.80
2022-09-28T03:25:33.545Z,46.00
2022-09-28T03:28:02.689Z,46.01
2022-09-28T03:30:31.147Z,45.75
2022-09-28T03:32:59.689Z,45.88
2022-09-28T03:35:27.945Z,46.01
2022-09-28T03:37:56.608Z,45.98
2022-09-28T03:40:24.721Z,45.79
2022-09-28T03:42:53.572Z,45.94
2022-09-28T03:45:21.497Z,46.00
2022-09-28T03:47:49.899Z,45.91
2022-09-28T03:50:18.062Z,45.92
2022-09-28T03:52:46.429Z,46.07
2022-09-28T03:55:15.161Z,45.95
2022-09-28T03:57:43.408Z,45.96
2022-09-28T04:00:13.650Z,46.06
2022-09-28T04:02:41.594Z,46.06
2022-09-28T04:05:10.221Z,45.98
2022-09-28T04:07:38.432Z,45.87
2022-09-28T04:10:09.121Z,45.96
2022-09-28T04:12:37.373Z,46.16
2022-09-28T04:15:07.624Z,45.82
2022-09-28T04:17:39.949Z,45.91
2022-09-28T04:20:09.736Z,46.09
2022-09-28T04:22:37.678Z,46.11
2022-09-28T04:25:06.786Z,46.20
2022-09-28T04:27:53.223Z,46.06
2022-09-28T04:30:21.676Z,46.11
2022-09-28T04:32:49.906Z,46.03
2022-09-28T04:35:18.217Z,45.85
2022-09-28T04:37:46.177Z,45.89
2022-09-28T04:40:14.251Z,46.02
2022-09-28T04:42:42.197Z,46.16
2022-09-28T04:45:11.577Z,46.04
2022-09-28T04:47:39.672Z,46.19
2022-09-28T04:50:09.636Z,45.93
2022-09-28T04:52:38.025Z,45.96
2022-09-28T04:55:09.228Z,46.18
2022-09-28T04:57:37.302Z,46.24
2022-09-28T05:00:07.927Z,46.34
2022-09-28T05:02:36.236Z,46.13
2022-09-28T05:05:05.495Z,46.11
2022-09-28T05:07:33.401Z,46.34
2022-09-28T05:10:01.486Z,46.38
2022-09-28T05:12:29.423Z,46.46
2022-09-28T05:14:58.402Z,46.43
2022-09-28T05:17:26.731Z,46.43
2022-09-28T05:19:54.729Z,46.34
2022-09-28T05:22:22.961Z,46.49
2022-09-28T05:24:51.222Z,46.46
2022-09-28T05:27:19.158Z,46.52
2022-09-28T05:29:47.373Z,46.36
2022-09-28T05:32:16.313Z,46.53
2022-09-28T05:34:50.848Z,46.41
2022-09-28T05:37:19.126Z,46.65
2022-09-28T05:39:47.387Z,46.34
2022-09-28T05:42:15.326Z,46.52
2022-09-28T05:44:43.461Z,46.45
2022-09-28T05:47:11.428Z,46.45
2022-09-28T05:49:39.378Z,46.52
2022-09-28T05:52:07.385Z,46.52
2022-09-28T05:54:35.379Z,46.44
2022-09-28T05:57:06.073Z,46.42
2022-09-28T05:59:35.590Z,46.52
2022-09-28T06:02:05.173Z,45.81
2022-09-28T06:04:33.502Z,45.77
2022-09-28T06:07:01.584Z,45.74
2022-09-28T06:09:29.974Z,46.10
2022-09-28T06:11:59.822Z,45.88
2022-09-28T06:14:27.854Z,45.86
2022-09-28T06:16:55.868Z,45.81
2022-09-28T06:19:24.061Z,45.84
2022-09-28T06:21:52.167Z,46.07
2022-09-28T06:24:20.165Z,46.10
2022-09-28T06:26:48.103Z,46.16
2022-09-28T06:29:19.642Z,45.76
2022-09-28T06:31:48.032Z,45.94
2022-09-28T06:34:16.964Z,46.04
2022-09-28T06:36:45.279Z,45.96
2022-09-28T06:39:13.395Z,46.03
2022-09-28T06:41:42.231Z,46.04
2022-09-28T06:44:10.667Z,45.86
2022-09-28T06:46:39.601Z,45.93
2022-09-28T06:49:08.984Z,46.02
2022-09-28T06:51:37.335Z,45.88
2022-09-28T06:54:06.030Z,45.95
2022-09-28T06:56:34.189Z,45.99
2022-09-28T06:59:02.242Z,45.83
2022-09-28T07:01:30.712Z,45.79
2022-09-28T07:04:01.277Z,45.57
2022-09-28T07:06:31.078Z,45.80
2022-09-28T07:09:22.826Z,45.96
2022-09-28T07:11:52.041Z,45.95
2022-09-28T07:14:41.230Z,45.83
2022-09-28T07:17:13.555Z,45.83
2022-09-28T07:19:42.870Z,45.65
2022-09-28T07:22:18.428Z,45.76
2022-09-28T07:24:47.699Z,45.76
2022-09-28T07:27:15.841Z,45.73
2022-09-28T07:29:43.856Z,45.70
2022-09-28T07:32:12.035Z,45.76
2022-09-28T07:34:42.948Z,45.83
2022-09-28T07:37:11.976Z,45.80
2022-09-28T07:39:54.870Z,45.67
2022-09-28T07:42:23.167Z,45.65
2022-09-28T07:44:51.122Z,45.55
2022-09-28T07:47:27.818Z,45.61
2022-09-28T07:49:59.707Z,45.52
2022-09-28T07:52:28.251Z,45.22
2022-09-28T07:54:56.396Z,45.04
2022-09-28T07:57:24.938Z,44.61
2022-09-28T07:59:53.462Z,44.14
2022-09-28T08:02:21.944Z,43.85
2022-09-28T08:04:50.651Z,43.60
2022-09-28T08:07:23.463Z,43.26
2022-09-28T08:09:52.066Z,43.02
2022-09-28T08:12:20.571Z,42.70
2022-09-28T08:14:50.421Z,42.42
2022-09-28T08:17:18.460Z,42.24
2022-09-28T08:20:04.957Z,41.98
2022-09-28T08:22:32.986Z,41.67
2022-09-28T08:25:01.024Z,41.80
2022-09-28T08:27:29.292Z,41.93
2022-09-28T08:29:57.292Z,41.66
2022-09-28T08:32:25.753Z,41.87
2022-09-28T08:34:55.363Z,41.87
2022-09-28T08:37:23.570Z,41.95
2022-09-28T08:39:51.727Z,41.81
2022-09-28T08:42:32.947Z,41.26
2022-09-28T08:45:08.422Z,41.29
2022-09-28T08:48:02.290Z,41.40
2022-09-28T08:50:33.897Z,41.41
2022-09-28T08:53:12.562Z,41.48
2022-09-28T08:55:44.661Z,41.71
2022-09-28T08:58:18.158Z,41.82
2022-09-28T09:00:49.273Z,41.77
2022-09-28T09:03:21.292Z,41.84
2022-09-28T09:06:03.225Z,41.94
2022-09-28T09:08:51.755Z,42.01
2022-09-28T09:11:36.433Z,42.13
2022-09-28T09:14:20.761Z,42.17
2022-09-28T09:17:00.539Z,42.20
2022-09-28T09:19:41.285Z,42.41
2022-09-28T09:22:16.741Z,42.54
2022-09-28T09:24:51.278Z,42.51
2022-09-28T09:27:40.936Z,42.50
2022-09-28T09:30:14.300Z,42.42
2022-09-28T09:33:08.212Z,42.43
2022-09-28T09:35:58.741Z,42.75
2022-09-28T09:38:50.032Z,42.72
2022-09-28T09:41:28.655Z,42.80
2022-09-28T09:44:27.612Z,42.78
2022-09-28T09:46:59.118Z,42.52
2022-09-28T09:49:34.440Z,42.74
2022-09-28T09:52:10.524Z,42.61
2022-09-28T09:54:43.188Z,42.86
2022-09-28T09:57:17.173Z,42.87
2022-09-28T09:59:46.782Z,42.95
2022-09-28T10:02:22.716Z,43.13
2022-09-28T10:04:54.704Z,42.99
2022-09-28T10:07:28.653Z,43.02
2022-09-28T10:09:58.309Z,43.14
2022-09-28T10:12:26.514Z,42.71
2022-09-28T10:14:55.522Z,42.78
2022-09-28T10:17:26.873Z,42.76
2022-09-28T10:19:56.604Z,42.91
2022-09-28T10:22:27.402Z,43.16
2022-09-28T10:24:57.857Z,42.77
2022-09-28T10:27:29.432Z,42.91
2022-09-28T10:30:01.835Z,42.98
2022-09-28T10:32:39.774Z,43.12
2022-09-28T10:35:22.814Z,43.02
2022-09-28T10:37:56.811Z,43.08
2022-09-28T10:40:33.992Z,43.06
2022-09-28T10:43:05.051Z,43.14
2022-09-28T17:49:32.400Z,44.36
2022-09-28T17:52:01.252Z,44.43
2022-09-28T17:54:29.368Z,44.52
2022-09-28T17:56:57.796Z,44.70
2022-09-28T17:59:27.452Z,44.67
2022-09-28T18:01:58.467Z,44.85
2022-09-28T18:04:50.857Z,44.96
2022-09-28T18:07:17.903Z,45.12
2022-09-28T18:09:45.974Z,44.85
2022-09-28T18:12:13.953Z,44.80
2022-09-28T18:14:42.240Z,45.11
2022-09-28T18:17:10.316Z,45.09
2022-09-28T18:19:38.236Z,45.17
2022-09-28T18:22:06.364Z,44.97
2022-09-28T18:24:34.441Z,45.14
2022-09-28T18:27:02.520Z,45.08
2022-09-28T18:29:33.321Z,45.08
2022-09-28T18:32:02.669Z,45.15
2022-09-28T18:34:30.679Z,45.02
2022-09-28T18:36:58.714Z,44.94
2022-09-28T18:39:27.119Z,44.94
2022-09-28T18:41:55.115Z,44.90
2022-09-28T18:44:23.727Z,44.90
2022-09-28T18:46:51.984Z,44.86
2022-09-28T18:49:20.283Z,45.03
2022-09-28T18:51:48.913Z,45.03
2022-09-28T18:54:17.518Z,44.99
2022-09-28T18:56:45.516Z,44.92
2022-09-28T18:59:14.376Z,45.10
2022-09-28T19:01:42.910Z,45.04
2022-09-28T19:04:12.956Z,45.25
2022-09-28T19:06:43.749Z,44.92
2022-09-28T19:09:12.490Z,45.02
2022-09-28T19:11:40.942Z,45.06
2022-09-28T19:14:14.301Z,44.90
2022-09-28T19:16:43.304Z,45.05
2022-09-28T19:19:13.827Z,44.98
2022-09-28T19:21:43.041Z,44.89
2022-09-28T19:24:13.815Z,44.82
2022-09-28T19:26:42.156Z,44.98
2022-09-28T19:29:12.144Z,44.92
2022-09-28T19:31:42.600Z,45.01
2022-09-28T19:34:13.433Z,44.90
2022-09-28T19:36:42.727Z,44.85
2022-09-28T19:39:14.515Z,44.91
2022-09-28T19:41:48.713Z,44.93
2022-09-28T19:44:23.767Z,44.95
2022-09-28T19:46:53.900Z,45.09
2022-09-28T19:49:23.568Z,45.02
2022-09-28T19:52:12.283Z,45.03
2022-09-28T19:54:43.138Z,45.24
2022-09-28T19:57:11.498Z,45.14
2022-09-28T19:59:39.969Z,45.23
2022-09-28T20:02:10.222Z,45.20
2022-09-28T20:04:38.413Z,45.28
2022-09-28T20:07:06.547Z,45.36
2022-09-28T20:09:34.775Z,45.38
2022-09-28T20:12:03.356Z,45.21
2022-09-28T20:14:35.288Z,45.30
2022-09-28T20:17:06.538Z,45.20
2022-09-28T20:19:35.469Z,45.28
2022-09-28T20:22:04.117Z,45.25
2022-09-28T20:24:32.617Z,45.36
2022-09-28T20:27:01.446Z,45.13
2022-09-28T20:29:31.586Z,45.15
2022-09-28T20:31:59.877Z,45.33
2022-09-28T20:34:27.852Z,45.18
2022-09-28T20:36:55.942Z,45.24
2022-09-28T20:39:24.070Z,45.34
2022-09-28T20:41:52.077Z,45.39
2022-09-28T20:44:20.695Z,45.32
2022-09-28T20:46:50.946Z,45.36
2022-09-28T20:49:18.931Z,45.32
2022-09-28T20:51:46.867Z,45.36
2022-09-28T20:54:14.958Z,45.22
2022-09-28T20:56:43.135Z,45.21
2022-09-28T20:59:12.497Z,45.09
2022-09-28T21:01:41.017Z,45.28
2022-09-28T21:04:10.415Z,45.04
2022-09-28T21:06:40.461Z,45.35
2022-09-28T21:09:10.241Z,45.15
2022-09-28T21:11:38.962Z,45.45
2022-09-28T21:14:09.595Z,45.35
2022-09-28T21:16:38.297Z,45.29
2022-09-28T21:19:06.272Z,45.07
2022-09-28T21:21:34.414Z,45.23
2022-09-28T21:24:02.827Z,45.08
2022-09-28T21:26:31.664Z,45.30
2022-09-28T21:29:01.254Z,45.20
2022-09-28T21:31:32.315Z,45.31
2022-09-28T21:34:00.615Z,45.40
2022-09-28T21:36:28.719Z,45.28
2022-09-28T21:38:56.716Z,45.16
2022-09-28T21:41:25.701Z,45.25
2022-09-28T21:43:53.663Z,45.18
2022-09-28T21:46:21.993Z,45.34
2022-09-28T21:48:53.220Z,45.37
2022-09-28T21:51:21.551Z,45.46
2022-09-28T21:53:50.094Z,45.51
2022-09-28T21:56:18.085Z,45.48
2022-09-28T21:58:46.907Z,45.39
2022-09-28T22:01:17.535Z,45.35
2022-09-28T22:03:47.891Z,45.29
2022-09-28T22:06:17.741Z,45.29
2022-09-28T22:08:46.687Z,45.41
2022-09-28T22:11:16.120Z,45.37
2022-09-28T22:13:46.141Z,45.55
2022-09-28T22:16:15.656Z,45.56
2022-09-28T22:18:44.064Z,45.58
2022-09-28T22:21:14.739Z,45.66
2022-09-28T22:23:43.572Z,45.44
2022-09-28T22:26:13.985Z,45.71
2022-09-28T22:28:46.743Z,45.70
2022-09-28T22:31:15.558Z,45.70
2022-09-28T22:33:43.671Z,45.76
2022-09-28T22:36:14.306Z,45.74
2022-09-28T22:38:42.364Z,45.67
2022-09-28T22:41:11.046Z,45.61
2022-09-28T22:43:39.165Z,45.60
2022-09-28T22:46:09.565Z,45.52
2022-09-28T22:48:38.286Z,45.63
2022-09-28T22:51:07.451Z,45.76
2022-09-28T22:53:35.855Z,45.76
2022-09-28T22:56:05.191Z,45.65
2022-09-28T22:58:33.705Z,45.58
2022-09-28T23:01:07.496Z,45.74
2022-09-28T23:03:35.608Z,45.80
2022-09-28T23:06:04.242Z,45.99
2022-09-28T23:08:32.666Z,45.76
2022-09-28T23:11:01.492Z,45.74
2022-09-28T23:13:30.433Z,45.82
2022-09-28T23:16:00.327Z,45.79
2022-09-28T23:18:30.402Z,45.81
2022-09-28T23:21:01.096Z,45.70
2022-09-28T23:23:29.274Z,45.72
2022-09-28T23:25:57.234Z,45.95
2022-09-28T23:28:27.137Z,45.86
2022-09-28T23:30:55.143Z,45.70
2022-09-28T23:33:23.271Z,45.79
2022-09-28T23:35:51.234Z,45.82
2022-09-28T23:38:19.386Z,45.95
2022-09-28T23:40:47.622Z,45.91
2022-09-28T23:43:15.566Z,45.86
2022-09-28T23:45:44.087Z,46.06
2022-09-28T23:48:14.204Z,45.95
2022-09-28T23:50:42.866Z,45.96
2022-09-28T23:53:13.084Z,46.06
2022-09-28T23:55:42.814Z,45.90
2022-09-28T23:58:11.733Z,46.01
